sensor_id;sensor_type;location;lat;lon;timestamp;temperature;humidity
18882;DHT22;9573;50.948;11.600;2022-10-18T00:00:14;13.80;99.90
18882;DHT22;9573;50.948;11.600;2022-10-18T00:02:42;13.90;99.90
18882;DHT22;9573;50.948;11.600;2022-10-18T00:05:09;13.80;99.90
18882;DHT22;9573;50.948;11.600;2022-10-18T00:07:37;13.90;99.90
18882;DHT22;9573;50.948;11.600;2022-10-18T00:10:05;13.90;99.90
18882;DHT22;9573;50.948;11.600;2022-10-18T00:12:33;14.00;99.90
18882;DHT22;9573;50.948;11.600;2022-10-18T00:15:01;14.00;99.90
18882;DHT22;9573;50.948;11.600;2022-10-18T00:17:29;14.10;99.90
18882;DHT22;9573;50.948;11.600;2022-10-18T00:19:57;14.10;99.90
18882;DHT22;9573;50.948;11.600;2022-10-18T00:22:24;14.20;99.90
18882;DHT22;9573;50.948;11.600;2022-10-18T00:24:51;14.10;99.90
18882;DHT22;9573;50.948;11.600;2022-10-18T00:27:18;14.00;99.90
18882;DHT22;9573;50.948;11.600;2022-10-18T00:29:46;14.20;99.90
18882;DHT22;9573;50.948;11.600;2022-10-18T00:32:13;14.30;99.90
18882;DHT22;9573;50.948;11.600;2022-10-18T00:34:40;14.30;99.90
18882;DHT22;9573;50.948;11.600;2022-10-18T00:37:08;14.30;99.90
18882;DHT22;9573;50.948;11.600;2022-10-18T00:39:35;14.30;99.90
18882;DHT22;9573;50.948;11.600;2022-10-18T00:42:03;14.30;99.90
18882;DHT22;9573;50.948;11.600;2022-10-18T00:47:48;14.40;99.90
18882;DHT22;9573;50.948;11.600;2022-10-18T00:50:24;14.40;99.90
18882;DHT22;9573;50.948;11.600;2022-10-18T00:52:56;14.40;99.90
18882;DHT22;9573;50.948;11.600;2022-10-18T00:55:25;14.40;99.90
18882;DHT22;9573;50.948;11.600;2022-10-18T00:57:53;14.40;99.90
18882;DHT22;9573;50.948;11.600;2022-10-18T01:00:20;14.30;99.90
18882;DHT22;9573;50.948;11.600;2022-10-18T01:02:47;14.40;99.90
18882;DHT22;9573;50.948;11.600;2022-10-18T01:05:16;14.40;99.90
18882;DHT22;9573;50.948;11.600;2022-10-18T01:08:00;14.40;99.90
18882;DHT22;9573;50.948;11.600;2022-10-18T01:10:43;14.40;99.90
18882;DHT22;9573;50.948;11.600;2022-10-18T01:13:27;14.40;99.90
18882;DHT22;9573;50.948;11.600;2022-10-18T01:16:06;14.40;99.90
18882;DHT22;9573;50.948;11.600;2022-10-18T01:18:45;14.40;99.90
18882;DHT22;9573;50.948;11.600;2022-10-18T01:21:22;14.40;99.90
18882;DHT22;9573;50.948;11.600;2022-10-18T01:27:37;14.40;99.90
18882;DHT22;9573;50.948;11.600;2022-10-18T01:30:33;14.40;99.90
18882;DHT22;9573;50.948;11.600;2022-10-18T01:33:09;14.40;99.90
18882;DHT22;9573;50.948;11.600;2022-10-18T01:35:48;14.40;99.90
18882;DHT22;9573;50.948;11.600;2022-10-18T01:38:19;14.40;99.90
18882;DHT22;9573;50.948;11.600;2022-10-18T01:40:48;14.30;99.90
18882;DHT22;9573;50.948;11.600;2022-10-18T01:43:16;14.30;99.90
18882;DHT22;9573;50.948;11.600;2022-10-18T01:45:47;14.30;99.90
18882;DHT22;9573;50.948;11.600;2022-10-18T01:48:15;14.20;99.90
18882;DHT22;9573;50.948;11.600;2022-10-18T01:50:43;14.20;99.90
18882;DHT22;9573;50.948;11.600;2022-10-18T01:53:24;14.20;99.90
18882;DHT22;9573;50.948;11.600;2022-10-18T01:59:01;14.20;99.90
18882;DHT22;9573;50.948;11.600;2022-10-18T02:01:48;14.10;99.90
18882;DHT22;9573;50.948;11.600;2022-10-18T02:04:24;14.10;99.90
18882;DHT22;9573;50.948;11.600;2022-10-18T02:07:01;14.10;99.90
18882;DHT22;9573;50.948;11.600;2022-10-18T02:09:35;14.10;99.90
18882;DHT22;9573;50.948;11.600;2022-10-18T02:12:09;14.10;99.90
18882;DHT22;9573;50.948;11.600;2022-10-18T02:14:38;14.10;99.90
18882;DHT22;9573;50.948;11.600;2022-10-18T02:17:10;14.10;99.90
18882;DHT22;9573;50.948;11.600;2022-10-18T02:19:40;14.00;99.90
18882;DHT22;9573;50.948;11.600;2022-10-18T02:22:10;14.10;99.90
18882;DHT22;9573;50.948;11.600;2022-10-18T02:24:42;14.10;99.90
18882;DHT22;9573;50.948;11.600;2022-10-18T02:27:10;14.10;99.90
18882;DHT22;9573;50.948;11.600;2022-10-18T02:29:38;14.00;99.90
18882;DHT22;9573;50.948;11.600;2022-10-18T02:32:12;14.00;99.90
18882;DHT22;9573;50.948;11.600;2022-10-18T02:34:46;14.10;99.90
18882;DHT22;9573;50.948;11.600;2022-10-18T02:37:19;14.20;99.90
18882;DHT22;9573;50.948;11.600;2022-10-18T02:39:47;14.20;99.90
18882;DHT22;9573;50.948;11.600;2022-10-18T02:42:16;14.30;99.90
18882;DHT22;9573;50.948;11.600;2022-10-18T02:44:43;14.30;99.90
18882;DHT22;9573;50.948;11.600;2022-10-18T02:47:11;14.40;99.90
18882;DHT22;9573;50.948;11.600;2022-10-18T02:49:39;14.50;99.90
18882;DHT22;9573;50.948;11.600;2022-10-18T02:52:06;14.50;99.90
18882;DHT22;9573;50.948;11.600;2022-10-18T02:54:33;14.60;99.90
18882;DHT22;9573;50.948;11.600;2022-10-18T02:57:00;14.60;99.90
18882;DHT22;9573;50.948;11.600;2022-10-18T02:59:27;14.60;99.90
18882;DHT22;9573;50.948;11.600;2022-10-18T03:01:54;14.70;99.90
18882;DHT22;9573;50.948;11.600;2022-10-18T03:04:23;14.70;99.90
18882;DHT22;9573;50.948;11.600;2022-10-18T03:06:50;14.80;99.90
18882;DHT22;9573;50.948;11.600;2022-10-18T03:09:17;14.80;99.90
18882;DHT22;9573;50.948;11.600;2022-10-18T03:11:44;14.80;99.90
18882;DHT22;9573;50.948;11.600;2022-10-18T03:14:11;14.80;99.90
18882;DHT22;9573;50.948;11.600;2022-10-18T03:16:38;14.70;99.90
18882;DHT22;9573;50.948;11.600;2022-10-18T03:19:05;13.50;99.90
18882;DHT22;9573;50.948;11.600;2022-10-18T03:21:34;14.70;99.90
18882;DHT22;9573;50.948;11.600;2022-10-18T03:24:01;14.80;99.90
18882;DHT22;9573;50.948;11.600;2022-10-18T03:26:28;14.70;99.90
18882;DHT22;9573;50.948;11.600;2022-10-18T03:28:55;14.80;99.90
18882;DHT22;9573;50.948;11.600;2022-10-18T03:31:22;14.80;99.90
18882;DHT22;9573;50.948;11.600;2022-10-18T03:33:50;14.80;99.90
18882;DHT22;9573;50.948;11.600;2022-10-18T03:36:17;14.80;99.90
18882;DHT22;9573;50.948;11.600;2022-10-18T03:38:45;14.80;99.90
18882;DHT22;9573;50.948;11.600;2022-10-18T03:41:12;14.90;99.90
18882;DHT22;9573;50.948;11.600;2022-10-18T03:43:39;14.90;99.90
18882;DHT22;9573;50.948;11.600;2022-10-18T03:46:06;14.90;99.90
18882;DHT22;9573;50.948;11.600;2022-10-18T03:48:34;15.00;99.90
18882;DHT22;9573;50.948;11.600;2022-10-18T03:51:01;14.60;99.90
18882;DHT22;9573;50.948;11.600;2022-10-18T03:53:28;15.00;99.90
18882;DHT22;9573;50.948;11.600;2022-10-18T03:55:56;15.00;99.90
18882;DHT22;9573;50.948;11.600;2022-10-18T03:58:23;15.00;99.90
18882;DHT22;9573;50.948;11.600;2022-10-18T04:00:51;14.90;99.90
18882;DHT22;9573;50.948;11.600;2022-10-18T04:03:20;14.90;99.90
18882;DHT22;9573;50.948;11.600;2022-10-18T04:05:48;14.90;99.90
18882;DHT22;9573;50.948;11.600;2022-10-18T04:08:16;15.00;99.90
18882;DHT22;9573;50.948;11.600;2022-10-18T04:10:44;14.90;99.90
18882;DHT22;9573;50.948;11.600;2022-10-18T04:13:13;14.90;99.90
18882;DHT22;9573;50.948;11.600;2022-10-18T04:15:40;14.90;99.90
18882;DHT22;9573;50.948;11.600;2022-10-18T04:18:07;15.00;99.90
18882;DHT22;9573;50.948;11.600;2022-10-18T04:20:34;15.00;99.90
18882;DHT22;9573;50.948;11.600;2022-10-18T04:23:01;14.20;99.90
18882;DHT22;9573;50.948;11.600;2022-10-18T04:25:29;15.00;99.90
18882;DHT22;9573;50.948;11.600;2022-10-18T04:27:56;15.00;99.90
18882;DHT22;9573;50.948;11.600;2022-10-18T04:30:24;15.00;99.90
18882;DHT22;9573;50.948;11.600;2022-10-18T04:32:51;15.00;99.90
18882;DHT22;9573;50.948;11.600;2022-10-18T04:35:18;15.10;99.90
18882;DHT22;9573;50.948;11.600;2022-10-18T04:37:48;15.10;99.90
18882;DHT22;9573;50.948;11.600;2022-10-18T04:40:16;15.10;99.90
18882;DHT22;9573;50.948;11.600;2022-10-18T04:42:44;15.10;99.90
18882;DHT22;9573;50.948;11.600;2022-10-18T04:45:11;15.10;99.90
18882;DHT22;9573;50.948;11.600;2022-10-18T04:47:40;15.10;99.90
18882;DHT22;9573;50.948;11.600;2022-10-18T04:50:07;15.10;99.90
18882;DHT22;9573;50.948;11.600;2022-10-18T04:52:34;15.00;99.90
18882;DHT22;9573;50.948;11.600;2022-10-18T04:55:02;15.00;99.90
18882;DHT22;9573;50.948;11.600;2022-10-18T04:57:29;15.00;99.90
18882;DHT22;9573;50.948;11.600;2022-10-18T04:59:56;15.10;99.90
18882;DHT22;9573;50.948;11.600;2022-10-18T05:02:23;15.10;99.90
18882;DHT22;9573;50.948;11.600;2022-10-18T05:04:51;15.10;99.90
18882;DHT22;9573;50.948;11.600;2022-10-18T05:07:18;15.10;99.90
18882;DHT22;9573;50.948;11.600;2022-10-18T05:09:45;15.00;99.90
18882;DHT22;9573;50.948;11.600;2022-10-18T05:12:13;15.00;99.90
18882;DHT22;9573;50.948;11.600;2022-10-18T05:14:40;15.00;99.90
18882;DHT22;9573;50.948;11.600;2022-10-18T05:17:07;15.00;99.90
18882;DHT22;9573;50.948;11.600;2022-10-18T05:19:34;15.00;99.90
18882;DHT22;9573;50.948;11.600;2022-10-18T05:22:02;15.00;99.90
18882;DHT22;9573;50.948;11.600;2022-10-18T05:24:29;15.00;99.90
18882;DHT22;9573;50.948;11.600;2022-10-18T05:26:56;15.00;99.90
18882;DHT22;9573;50.948;11.600;2022-10-18T05:29:24;15.00;99.90
18882;DHT22;9573;50.948;11.600;2022-10-18T05:31:51;15.00;99.90
18882;DHT22;9573;50.948;11.600;2022-10-18T05:34:18;15.00;99.90
18882;DHT22;9573;50.948;11.600;2022-10-18T05:36:46;15.00;99.90
18882;DHT22;9573;50.948;11.600;2022-10-18T05:39:15;15.00;99.90
18882;DHT22;9573;50.948;11.600;2022-10-18T05:41:42;15.10;99.90
18882;DHT22;9573;50.948;11.600;2022-10-18T05:44:09;15.10;99.90
18882;DHT22;9573;50.948;11.600;2022-10-18T05:46:36;15.10;99.90
18882;DHT22;9573;50.948;11.600;2022-10-18T05:49:03;15.10;99.90
18882;DHT22;9573;50.948;11.600;2022-10-18T05:51:31;15.20;99.90
18882;DHT22;9573;50.948;11.600;2022-10-18T05:53:58;15.20;99.90
18882;DHT22;9573;50.948;11.600;2022-10-18T05:56:26;15.20;99.90
18882;DHT22;9573;50.948;11.600;2022-10-18T05:58:53;15.20;99.90
18882;DHT22;9573;50.948;11.600;2022-10-18T06:01:20;15.20;99.90
18882;DHT22;9573;50.948;11.600;2022-10-18T06:03:48;15.20;99.90
18882;DHT22;9573;50.948;11.600;2022-10-18T06:06:19;15.20;99.90
18882;DHT22;9573;50.948;11.600;2022-10-18T06:08:48;15.20;99.90
18882;DHT22;9573;50.948;11.600;2022-10-18T06:11:17;15.20;99.90
18882;DHT22;9573;50.948;11.600;2022-10-18T06:13:48;15.20;99.90
18882;DHT22;9573;50.948;11.600;2022-10-18T06:16:17;15.20;99.90
18882;DHT22;9573;50.948;11.600;2022-10-18T06:18:47;15.20;99.90
18882;DHT22;9573;50.948;11.600;2022-10-18T06:21:15;15.30;99.90
18882;DHT22;9573;50.948;11.600;2022-10-18T06:23:42;15.40;99.90
18882;DHT22;9573;50.948;11.600;2022-10-18T06:26:10;15.40;99.90
18882;DHT22;9573;50.948;11.600;2022-10-18T06:28:37;15.50;99.90
18882;DHT22;9573;50.948;11.600;2022-10-18T06:31:06;15.50;99.90
18882;DHT22;9573;50.948;11.600;2022-10-18T06:33:34;15.50;99.90
18882;DHT22;9573;50.948;11.600;2022-10-18T06:36:03;15.50;99.90
18882;DHT22;9573;50.948;11.600;2022-10-18T06:38:31;15.50;99.90
18882;DHT22;9573;50.948;11.600;2022-10-18T06:40:59;15.50;99.90
18882;DHT22;9573;50.948;11.600;2022-10-18T06:43:26;15.60;99.90
18882;DHT22;9573;50.948;11.600;2022-10-18T06:45:53;15.60;99.90
18882;DHT22;9573;50.948;11.600;2022-10-18T06:48:22;15.60;99.90
18882;DHT22;9573;50.948;11.600;2022-10-18T06:50:52;15.70;99.90
18882;DHT22;9573;50.948;11.600;2022-10-18T06:53:19;15.80;99.90
18882;DHT22;9573;50.948;11.600;2022-10-18T06:55:47;15.90;99.90
18882;DHT22;9573;50.948;11.600;2022-10-18T06:58:14;16.00;99.90
18882;DHT22;9573;50.948;11.600;2022-10-18T07:00:41;16.10;99.90
18882;DHT22;9573;50.948;11.600;2022-10-18T07:03:09;16.30;99.90
18882;DHT22;9573;50.948;11.600;2022-10-18T07:05:38;16.50;99.90
18882;DHT22;9573;50.948;11.600;2022-10-18T07:08:05;16.60;99.90
18882;DHT22;9573;50.948;11.600;2022-10-18T07:10:32;16.80;99.90
18882;DHT22;9573;50.948;11.600;2022-10-18T07:12:59;17.10;99.90
18882;DHT22;9573;50.948;11.600;2022-10-18T07:15:26;17.50;99.90
18882;DHT22;9573;50.948;11.600;2022-10-18T07:17:53;17.70;99.90
18882;DHT22;9573;50.948;11.600;2022-10-18T07:20:21;17.30;99.90
18882;DHT22;9573;50.948;11.600;2022-10-18T07:22:54;17.10;99.90
18882;DHT22;9573;50.948;11.600;2022-10-18T07:25:22;16.80;99.90
18882;DHT22;9573;50.948;11.600;2022-10-18T07:27:49;16.40;99.90
18882;DHT22;9573;50.948;11.600;2022-10-18T07:30:16;16.30;99.90
18882;DHT22;9573;50.948;11.600;2022-10-18T07:32:43;16.20;99.90
18882;DHT22;9573;50.948;11.600;2022-10-18T07:35:10;16.10;99.90
18882;DHT22;9573;50.948;11.600;2022-10-18T07:37:38;16.10;99.90
18882;DHT22;9573;50.948;11.600;2022-10-18T07:40:08;16.10;99.90
18882;DHT22;9573;50.948;11.600;2022-10-18T07:42:36;16.10;99.90
18882;DHT22;9573;50.948;11.600;2022-10-18T07:45:04;16.10;99.90
18882;DHT22;9573;50.948;11.600;2022-10-18T07:47:31;16.00;99.90
18882;DHT22;9573;50.948;11.600;2022-10-18T07:49:58;16.00;99.90
18882;DHT22;9573;50.948;11.600;2022-10-18T07:52:25;15.90;99.90
18882;DHT22;9573;50.948;11.600;2022-10-18T07:54:52;15.90;99.90
18882;DHT22;9573;50.948;11.600;2022-10-18T07:57:21;15.90;99.90
18882;DHT22;9573;50.948;11.600;2022-10-18T07:59:48;15.80;99.90
18882;DHT22;9573;50.948;11.600;2022-10-18T08:02:20;15.90;99.90
18882;DHT22;9573;50.948;11.600;2022-10-18T08:04:48;15.90;99.90
18882;DHT22;9573;50.948;11.600;2022-10-18T08:07:15;15.90;99.90
18882;DHT22;9573;50.948;11.600;2022-10-18T08:09:42;16.00;99.90
18882;DHT22;9573;50.948;11.600;2022-10-18T08:12:09;16.00;99.90
18882;DHT22;9573;50.948;11.600;2022-10-18T08:14:38;15.90;99.90
18882;DHT22;9573;50.948;11.600;2022-10-18T08:17:05;15.90;99.90
18882;DHT22;9573;50.948;11.600;2022-10-18T08:19:32;15.90;99.90
18882;DHT22;9573;50.948;11.600;2022-10-18T08:21:59;15.90;99.90
18882;DHT22;9573;50.948;11.600;2022-10-18T08:24:26;15.80;99.90
18882;DHT22;9573;50.948;11.600;2022-10-18T08:26:53;15.80;99.90
18882;DHT22;9573;50.948;11.600;2022-10-18T08:29:20;16.00;99.90
18882;DHT22;9573;50.948;11.600;2022-10-18T08:31:50;16.20;99.90
18882;DHT22;9573;50.948;11.600;2022-10-18T08:34:17;16.40;99.90
18882;DHT22;9573;50.948;11.600;2022-10-18T08:36:44;16.50;99.90
18882;DHT22;9573;50.948;11.600;2022-10-18T08:39:11;16.60;99.90
18882;DHT22;9573;50.948;11.600;2022-10-18T08:41:51;16.70;99.90
18882;DHT22;9573;50.948;11.600;2022-10-18T08:44:42;16.70;99.90
18882;DHT22;9573;50.948;11.600;2022-10-18T08:47:15;16.80;99.90
18882;DHT22;9573;50.948;11.600;2022-10-18T08:49:46;16.70;99.90
18882;DHT22;9573;50.948;11.600;2022-10-18T08:52:22;16.70;99.90
18882;DHT22;9573;50.948;11.600;2022-10-18T08:54:58;16.70;99.90
18882;DHT22;9573;50.948;11.600;2022-10-18T08:57:28;16.70;99.90
18882;DHT22;9573;50.948;11.600;2022-10-18T08:59:56;16.70;99.90
18882;DHT22;9573;50.948;11.600;2022-10-18T09:02:34;16.70;99.90
18882;DHT22;9573;50.948;11.600;2022-10-18T09:05:15;16.80;99.90
18882;DHT22;9573;50.948;11.600;2022-10-18T09:11:23;16.80;99.90
18882;DHT22;9573;50.948;11.600;2022-10-18T09:14:21;16.70;99.90
18882;DHT22;9573;50.948;11.600;2022-10-18T09:17:07;16.70;99.90
18882;DHT22;9573;50.948;11.600;2022-10-18T09:19:49;16.70;99.90
18882;DHT22;9573;50.948;11.600;2022-10-18T09:22:37;16.80;99.90
18882;DHT22;9573;50.948;11.600;2022-10-18T09:25:16;16.80;99.90
18882;DHT22;9573;50.948;11.600;2022-10-18T09:27:51;16.80;99.90
18882;DHT22;9573;50.948;11.600;2022-10-18T09:30:31;16.80;99.90
18882;DHT22;9573;50.948;11.600;2022-10-18T09:33:17;16.80;99.90
18882;DHT22;9573;50.948;11.600;2022-10-18T09:35:53;16.90;99.90
18882;DHT22;9573;50.948;11.600;2022-10-18T09:38:26;16.70;99.90
18882;DHT22;9573;50.948;11.600;2022-10-18T09:40:59;16.80;99.90
18882;DHT22;9573;50.948;11.600;2022-10-18T09:43:40;16.70;99.90
18882;DHT22;9573;50.948;11.600;2022-10-18T09:46:12;16.70;99.90
18882;DHT22;9573;50.948;11.600;2022-10-18T09:48:44;16.70;99.90
18882;DHT22;9573;50.948;11.600;2022-10-18T09:51:16;16.60;99.90
18882;DHT22;9573;50.948;11.600;2022-10-18T09:53:59;16.70;99.90
18882;DHT22;9573;50.948;11.600;2022-10-18T09:56:32;16.80;99.90
18882;DHT22;9573;50.948;11.600;2022-10-18T09:59:02;16.80;99.90
18882;DHT22;9573;50.948;11.600;2022-10-18T10:01:30;16.90;99.90
18882;DHT22;9573;50.948;11.600;2022-10-18T10:03:58;16.90;99.90
18882;DHT22;9573;50.948;11.600;2022-10-18T10:06:28;16.90;99.90
18882;DHT22;9573;50.948;11.600;2022-10-18T10:09:03;16.90;99.90
18882;DHT22;9573;50.948;11.600;2022-10-18T10:11:36;16.90;99.90
18882;DHT22;9573;50.948;11.600;2022-10-18T10:14:11;16.90;99.90
18882;DHT22;9573;50.948;11.600;2022-10-18T10:16:51;16.90;99.90
18882;DHT22;9573;50.948;11.600;2022-10-18T10:19:23;16.90;99.90
18882;DHT22;9573;50.948;11.600;2022-10-18T10:21:57;16.90;99.90
18882;DHT22;9573;50.948;11.600;2022-10-18T10:24:33;17.00;99.90
18882;DHT22;9573;50.948;11.600;2022-10-18T10:27:06;17.00;99.90
18882;DHT22;9573;50.948;11.600;2022-10-18T10:29:56;17.00;99.90
18882;DHT22;9573;50.948;11.600;2022-10-18T10:32:29;17.00;99.90
18882;DHT22;9573;50.948;11.600;2022-10-18T10:34:57;17.00;99.90
18882;DHT22;9573;50.948;11.600;2022-10-18T10:37:29;17.10;99.90
18882;DHT22;9573;50.948;11.600;2022-10-18T10:40:15;17.00;99.90
18882;DHT22;9573;50.948;11.600;2022-10-18T10:43:01;17.00;99.90
18882;DHT22;9573;50.948;11.600;2022-10-18T10:45:33;17.00;99.90
18882;DHT22;9573;50.948;11.600;2022-10-18T10:48:05;17.00;99.90
18882;DHT22;9573;50.948;11.600;2022-10-18T10:50:51;17.00;99.90
18882;DHT22;9573;50.948;11.600;2022-10-18T10:53:32;17.00;99.90
18882;DHT22;9573;50.948;11.600;2022-10-18T10:56:02;17.00;99.90
18882;DHT22;9573;50.948;11.600;2022-10-18T10:58:34;16.90;99.90
18882;DHT22;9573;50.948;11.600;2022-10-18T11:01:19;17.00;99.90
18882;DHT22;9573;50.948;11.600;2022-10-18T11:03:52;17.00;99.90
18882;DHT22;9573;50.948;11.600;2022-10-18T11:06:46;17.10;99.90
18882;DHT22;9573;50.948;11.600;2022-10-18T11:09:32;17.10;99.90
18882;DHT22;9573;50.948;11.600;2022-10-18T11:12:15;17.10;99.90
18882;DHT22;9573;50.948;11.600;2022-10-18T11:14:50;17.20;99.90
18882;DHT22;9573;50.948;11.600;2022-10-18T11:17:26;17.20;99.90
18882;DHT22;9573;50.948;11.600;2022-10-18T11:20:20;17.30;99.90
18882;DHT22;9573;50.948;11.600;2022-10-18T11:22:57;17.30;99.90
18882;DHT22;9573;50.948;11.600;2022-10-18T11:28:32;17.30;99.90
18882;DHT22;9573;50.948;11.600;2022-10-18T11:31:13;17.30;99.90
18882;DHT22;9573;50.948;11.600;2022-10-18T11:33:58;17.30;99.90
18882;DHT22;9573;50.948;11.600;2022-10-18T11:36:33;17.20;99.90
18882;DHT22;9573;50.948;11.600;2022-10-18T11:39:11;17.10;99.90
18882;DHT22;9573;50.948;11.600;2022-10-18T11:41:49;17.00;99.90
18882;DHT22;9573;50.948;11.600;2022-10-18T11:44:27;17.00;99.90
18882;DHT22;9573;50.948;11.600;2022-10-18T11:47:03;16.90;99.90
18882;DHT22;9573;50.948;11.600;2022-10-18T11:49:53;16.80;99.90
18882;DHT22;9573;50.948;11.600;2022-10-18T11:52:35;16.80;99.90
18882;DHT22;9573;50.948;11.600;2022-10-18T11:55:17;16.70;99.90
18882;DHT22;9573;50.948;11.600;2022-10-18T11:57:56;16.70;99.90
18882;DHT22;9573;50.948;11.600;2022-10-18T12:00:36;16.60;99.90
18882;DHT22;9573;50.948;11.600;2022-10-18T12:03:20;16.70;99.90
18882;DHT22;9573;50.948;11.600;2022-10-18T12:05:52;16.60;99.90
18882;DHT22;9573;50.948;11.600;2022-10-18T12:08:24;16.60;99.90
18882;DHT22;9573;50.948;11.600;2022-10-18T12:10:56;16.70;99.90
18882;DHT22;9573;50.948;11.600;2022-10-18T12:13:30;16.70;99.90
18882;DHT22;9573;50.948;11.600;2022-10-18T12:16:01;16.80;99.90
18882;DHT22;9573;50.948;11.600;2022-10-18T12:18:30;16.90;99.90
18882;DHT22;9573;50.948;11.600;2022-10-18T12:21:00;16.90;99.90
18882;DHT22;9573;50.948;11.600;2022-10-18T12:23:35;16.90;99.90
18882;DHT22;9573;50.948;11.600;2022-10-18T12:26:09;16.80;99.90
18882;DHT22;9573;50.948;11.600;2022-10-18T12:28:46;16.80;99.90
18882;DHT22;9573;50.948;11.600;2022-10-18T12:31:21;16.80;99.90
18882;DHT22;9573;50.948;11.600;2022-10-18T12:33:57;16.90;99.90
18882;DHT22;9573;50.948;11.600;2022-10-18T12:36:44;16.90;99.90
18882;DHT22;9573;50.948;11.600;2022-10-18T12:39:21;17.00;99.90
18882;DHT22;9573;50.948;11.600;2022-10-18T12:41:53;17.10;99.90
18882;DHT22;9573;50.948;11.600;2022-10-18T12:44:27;17.10;99.90
18882;DHT22;9573;50.948;11.600;2022-10-18T12:46:58;17.10;99.90
18882;DHT22;9573;50.948;11.600;2022-10-18T12:49:28;17.20;99.90
18882;DHT22;9573;50.948;11.600;2022-10-18T12:51:59;17.20;99.90
18882;DHT22;9573;50.948;11.600;2022-10-18T12:54:30;17.30;99.90
18882;DHT22;9573;50.948;11.600;2022-10-18T12:56:59;17.30;99.90
18882;DHT22;9573;50.948;11.600;2022-10-18T12:59:50;17.30;99.90
18882;DHT22;9573;50.948;11.600;2022-10-18T13:02:20;17.40;99.90
18882;DHT22;9573;50.948;11.600;2022-10-18T13:04:49;17.40;99.90
18882;DHT22;9573;50.948;11.600;2022-10-18T13:10:37;17.40;99.90
18882;DHT22;9573;50.948;11.600;2022-10-18T13:13:36;17.60;99.90
18882;DHT22;9573;50.948;11.600;2022-10-18T13:16:27;17.90;99.90
18882;DHT22;9573;50.948;11.600;2022-10-18T13:18:59;18.20;99.90
18882;DHT22;9573;50.948;11.600;2022-10-18T13:21:50;18.40;99.90
18882;DHT22;9573;50.948;11.600;2022-10-18T13:24:25;18.40;99.90
18882;DHT22;9573;50.948;11.600;2022-10-18T13:27:13;18.40;99.90
18882;DHT22;9573;50.948;11.600;2022-10-18T13:29:59;18.10;99.90
18882;DHT22;9573;50.948;11.600;2022-10-18T13:32:44;18.00;99.90
18882;DHT22;9573;50.948;11.600;2022-10-18T13:35:41;17.90;99.90
18882;DHT22;9573;50.948;11.600;2022-10-18T13:38:44;18.00;99.90
18882;DHT22;9573;50.948;11.600;2022-10-18T13:41:17;18.00;99.90
18882;DHT22;9573;50.948;11.600;2022-10-18T13:44:08;18.10;99.90
18882;DHT22;9573;50.948;11.600;2022-10-18T13:53:20;17.90;99.90
18882;DHT22;9573;50.948;11.600;2022-10-18T13:59:25;17.90;99.90
18882;DHT22;9573;50.948;11.600;2022-10-18T14:05:31;18.10;99.90
18882;DHT22;9573;50.948;11.600;2022-10-18T14:08:13;18.30;99.90
18882;DHT22;9573;50.948;11.600;2022-10-18T14:10:47;18.40;99.90
18882;DHT22;9573;50.948;11.600;2022-10-18T14:13:23;18.50;99.90
18882;DHT22;9573;50.948;11.600;2022-10-18T14:15:56;18.40;99.90
18882;DHT22;9573;50.948;11.600;2022-10-18T14:18:31;18.30;99.90
18882;DHT22;9573;50.948;11.600;2022-10-18T14:21:06;18.20;99.90
18882;DHT22;9573;50.948;11.600;2022-10-18T14:23:40;18.10;99.90
18882;DHT22;9573;50.948;11.600;2022-10-18T14:26:13;18.00;99.90
18882;DHT22;9573;50.948;11.600;2022-10-18T14:28:41;17.80;99.90
18882;DHT22;9573;50.948;11.600;2022-10-18T14:31:12;17.70;99.90
18882;DHT22;9573;50.948;11.600;2022-10-18T14:33:42;17.70;99.90
18882;DHT22;9573;50.948;11.600;2022-10-18T14:36:14;17.60;99.90
18882;DHT22;9573;50.948;11.600;2022-10-18T14:38:47;17.40;99.90
18882;DHT22;9573;50.948;11.600;2022-10-18T14:41:19;17.70;99.90
18882;DHT22;9573;50.948;11.600;2022-10-18T14:43:47;17.70;99.90
18882;DHT22;9573;50.948;11.600;2022-10-18T14:46:18;17.60;99.90
18882;DHT22;9573;50.948;11.600;2022-10-18T14:48:54;17.70;99.90
18882;DHT22;9573;50.948;11.600;2022-10-18T14:51:24;17.70;99.90
18882;DHT22;9573;50.948;11.600;2022-10-18T14:53:52;17.60;99.90
18882;DHT22;9573;50.948;11.600;2022-10-18T14:56:25;17.60;99.90
18882;DHT22;9573;50.948;11.600;2022-10-18T14:58:54;17.80;99.90
18882;DHT22;9573;50.948;11.600;2022-10-18T15:01:24;17.90;99.90
18882;DHT22;9573;50.948;11.600;2022-10-18T15:03:57;17.90;99.90
18882;DHT22;9573;50.948;11.600;2022-10-18T15:06:32;17.90;99.90
18882;DHT22;9573;50.948;11.600;2022-10-18T15:09:02;18.00;99.90
18882;DHT22;9573;50.948;11.600;2022-10-18T15:11:30;17.90;99.90
18882;DHT22;9573;50.948;11.600;2022-10-18T15:14:02;17.90;99.90
18882;DHT22;9573;50.948;11.600;2022-10-18T15:16:31;17.80;99.90
18882;DHT22;9573;50.948;11.600;2022-10-18T15:19:02;17.70;99.90
18882;DHT22;9573;50.948;11.600;2022-10-18T15:21:34;17.60;99.90
18882;DHT22;9573;50.948;11.600;2022-10-18T15:24:25;17.60;99.90
18882;DHT22;9573;50.948;11.600;2022-10-18T15:26:58;17.50;99.90
18882;DHT22;9573;50.948;11.600;2022-10-18T15:29:30;17.40;99.90
18882;DHT22;9573;50.948;11.600;2022-10-18T15:32:06;17.30;99.90
18882;DHT22;9573;50.948;11.600;2022-10-18T15:34:37;17.30;99.90
18882;DHT22;9573;50.948;11.600;2022-10-18T15:37:16;17.20;99.90
18882;DHT22;9573;50.948;11.600;2022-10-18T15:40:28;17.20;99.90
18882;DHT22;9573;50.948;11.600;2022-10-18T15:43:01;17.10;99.90
18882;DHT22;9573;50.948;11.600;2022-10-18T15:45:38;17.10;99.90
18882;DHT22;9573;50.948;11.600;2022-10-18T15:48:30;17.10;99.90
18882;DHT22;9573;50.948;11.600;2022-10-18T15:51:00;17.00;99.90
18882;DHT22;9573;50.948;11.600;2022-10-18T15:53:44;17.00;99.90
18882;DHT22;9573;50.948;11.600;2022-10-18T15:56:26;17.00;99.90
18882;DHT22;9573;50.948;11.600;2022-10-18T15:58:55;16.90;99.90
18882;DHT22;9573;50.948;11.600;2022-10-18T16:01:30;16.90;99.90
18882;DHT22;9573;50.948;11.600;2022-10-18T16:04:00;16.90;99.90
18882;DHT22;9573;50.948;11.600;2022-10-18T16:06:31;16.90;99.90
18882;DHT22;9573;50.948;11.600;2022-10-18T16:09:01;16.80;99.90
18882;DHT22;9573;50.948;11.600;2022-10-18T16:11:28;16.80;99.90
18882;DHT22;9573;50.948;11.600;2022-10-18T16:13:55;16.80;99.90
18882;DHT22;9573;50.948;11.600;2022-10-18T16:16:24;16.70;99.90
18882;DHT22;9573;50.948;11.600;2022-10-18T16:18:53;16.70;99.90
18882;DHT22;9573;50.948;11.600;2022-10-18T16:21:24;16.70;99.90
18882;DHT22;9573;50.948;11.600;2022-10-18T16:23:52;16.60;99.90
18882;DHT22;9573;50.948;11.600;2022-10-18T16:26:22;16.60;99.90
18882;DHT22;9573;50.948;11.600;2022-10-18T16:28:49;16.50;99.90
18882;DHT22;9573;50.948;11.600;2022-10-18T16:31:18;16.50;99.90
18882;DHT22;9573;50.948;11.600;2022-10-18T16:33:47;16.50;99.90